sensor_id;sensor_type;location;lat;lon;timestamp;P1;durP1;ratioP1;P2;durP2;ratioP2
77262;SDS011;66373;52.334;4.806;2024-03-06T00:00:55;9.63;;;7.50;;
77262;SDS011;66373;52.334;4.806;2024-03-06T00:03:22;9.45;;;7.40;;
77262;SDS011;66373;52.334;4.806;2024-03-06T00:05:49;11.07;;;8.00;;
77262;SDS011;66373;52.334;4.806;2024-03-06T00:08:17;11.55;;;8.13;;
77262;SDS011;66373;52.334;4.806;2024-03-06T00:10:44;10.48;;;8.00;;
77262;SDS011;66373;52.334;4.806;2024-03-06T00:13:12;10.73;;;7.80;;
77262;SDS011;66373;52.334;4.806;2024-03-06T00:15:39;11.35;;;7.93;;
77262;SDS011;66373;52.334;4.806;2024-03-06T00:18:08;9.43;;;7.68;;
77262;SDS011;66373;52.334;4.806;2024-03-06T00:20:35;10.32;;;7.40;;
77262;SDS011;66373;52.334;4.806;2024-03-06T00:23:03;11.02;;;8.07;;
77262;SDS011;66373;52.334;4.806;2024-03-06T00:25:30;11.77;;;7.70;;
77262;SDS011;66373;52.334;4.806;2024-03-06T00:27:58;10.50;;;7.47;;
77262;SDS011;66373;52.334;4.806;2024-03-06T00:30:25;10.10;;;7.80;;
77262;SDS011;66373;52.334;4.806;2024-03-06T00:32:52;10.82;;;8.07;;
77262;SDS011;66373;52.334;4.806;2024-03-06T00:35:21;8.98;;;7.78;;
77262;SDS011;66373;52.334;4.806;2024-03-06T00:37:48;9.55;;;8.10;;
77262;SDS011;66373;52.334;4.806;2024-03-06T00:40:15;10.50;;;6.90;;
77262;SDS011;66373;52.334;4.806;2024-03-06T00:42:43;11.32;;;7.10;;
77262;SDS011;66373;52.334;4.806;2024-03-06T00:45:11;10.07;;;7.90;;
77262;SDS011;66373;52.334;4.806;2024-03-06T00:47:38;10.88;;;8.32;;
77262;SDS011;66373;52.334;4.806;2024-03-06T00:50:06;9.85;;;7.82;;
77262;SDS011;66373;52.334;4.806;2024-03-06T00:52:35;9.95;;;7.97;;
77262;SDS011;66373;52.334;4.806;2024-03-06T00:55:02;11.18;;;7.95;;
77262;SDS011;66373;52.334;4.806;2024-03-06T00:57:30;10.15;;;7.78;;
77262;SDS011;66373;52.334;4.806;2024-03-06T00:59:57;9.60;;;7.45;;
77262;SDS011;66373;52.334;4.806;2024-03-06T01:02:25;9.15;;;7.90;;
77262;SDS011;66373;52.334;4.806;2024-03-06T01:04:52;9.95;;;7.57;;
77262;SDS011;66373;52.334;4.806;2024-03-06T01:07:20;9.32;;;7.47;;
77262;SDS011;66373;52.334;4.806;2024-03-06T01:09:49;9.32;;;7.43;;
77262;SDS011;66373;52.334;4.806;2024-03-06T01:12:16;10.60;;;7.75;;
77262;SDS011;66373;52.334;4.806;2024-03-06T01:14:43;10.90;;;7.80;;
77262;SDS011;66373;52.334;4.806;2024-03-06T01:17:11;8.88;;;7.38;;
77262;SDS011;66373;52.334;4.806;2024-03-06T01:19:38;8.65;;;7.63;;
77262;SDS011;66373;52.334;4.806;2024-03-06T01:22:05;9.98;;;7.65;;
77262;SDS011;66373;52.334;4.806;2024-03-06T01:24:32;8.35;;;6.68;;
77262;SDS011;66373;52.334;4.806;2024-03-06T01:27:01;9.82;;;7.13;;
77262;SDS011;66373;52.334;4.806;2024-03-06T01:29:29;10.60;;;7.35;;
77262;SDS011;66373;52.334;4.806;2024-03-06T01:31:56;9.18;;;7.00;;
77262;SDS011;66373;52.334;4.806;2024-03-06T01:34:23;10.18;;;7.35;;
77262;SDS011;66373;52.334;4.806;2024-03-06T01:36:51;9.80;;;7.05;;
77262;SDS011;66373;52.334;4.806;2024-03-06T01:39:18;9.48;;;7.45;;
77262;SDS011;66373;52.334;4.806;2024-03-06T01:41:46;9.80;;;7.45;;
77262;SDS011;66373;52.334;4.806;2024-03-06T01:44:15;7.80;;;6.78;;
77262;SDS011;66373;52.334;4.806;2024-03-06T01:46:43;9.55;;;7.13;;
77262;SDS011;66373;52.334;4.806;2024-03-06T01:49:12;8.82;;;7.38;;
77262;SDS011;66373;52.334;4.806;2024-03-06T01:51:41;9.85;;;6.75;;
77262;SDS011;66373;52.334;4.806;2024-03-06T01:54:12;8.05;;;6.47;;
77262;SDS011;66373;52.334;4.806;2024-03-06T01:56:42;9.63;;;7.53;;
77262;SDS011;66373;52.334;4.806;2024-03-06T01:59:15;8.32;;;6.70;;
77262;SDS011;66373;52.334;4.806;2024-03-06T02:01:44;7.97;;;6.18;;
77262;SDS011;66373;52.334;4.806;2024-03-06T02:04:12;7.47;;;6.60;;
77262;SDS011;66373;52.334;4.806;2024-03-06T02:06:40;9.68;;;7.22;;
77262;SDS011;66373;52.334;4.806;2024-03-06T02:09:07;10.90;;;6.43;;
77262;SDS011;66373;52.334;4.806;2024-03-06T02:11:35;7.95;;;6.53;;
77262;SDS011;66373;52.334;4.806;2024-03-06T02:14:03;7.95;;;6.53;;
77262;SDS011;66373;52.334;4.806;2024-03-06T02:16:33;8.88;;;6.13;;
77262;SDS011;66373;52.334;4.806;2024-03-06T02:19:00;8.20;;;6.22;;
77262;SDS011;66373;52.334;4.806;2024-03-06T02:21:30;8.98;;;6.05;;
77262;SDS011;66373;52.334;4.806;2024-03-06T02:23:57;7.97;;;6.18;;
77262;SDS011;66373;52.334;4.806;2024-03-06T02:26:25;7.55;;;6.65;;
77262;SDS011;66373;52.334;4.806;2024-03-06T02:28:52;6.65;;;5.88;;
77262;SDS011;66373;52.334;4.806;2024-03-06T02:31:21;8.30;;;6.20;;
77262;SDS011;66373;52.334;4.806;2024-03-06T02:33:49;8.70;;;6.25;;
77262;SDS011;66373;52.334;4.806;2024-03-06T02:36:16;7.72;;;5.97;;
77262;SDS011;66373;52.334;4.806;2024-03-06T02:38:45;7.55;;;5.65;;
77262;SDS011;66373;52.334;4.806;2024-03-06T02:41:12;6.90;;;5.85;;
77262;SDS011;66373;52.334;4.806;2024-03-06T02:43:41;7.43;;;5.82;;
77262;SDS011;66373;52.334;4.806;2024-03-06T02:46:09;7.22;;;5.90;;
77262;SDS011;66373;52.334;4.806;2024-03-06T02:48:36;7.18;;;5.82;;
77262;SDS011;66373;52.334;4.806;2024-03-06T02:51:03;7.47;;;5.55;;
77262;SDS011;66373;52.334;4.806;2024-03-06T02:53:30;6.00;;;4.93;;
77262;SDS011;66373;52.334;4.806;2024-03-06T02:55:59;6.70;;;5.43;;
77262;SDS011;66373;52.334;4.806;2024-03-06T02:58:26;5.63;;;5.13;;
77262;SDS011;66373;52.334;4.806;2024-03-06T03:00:57;6.57;;;5.15;;
77262;SDS011;66373;52.334;4.806;2024-03-06T03:03:24;6.47;;;5.13;;
77262;SDS011;66373;52.334;4.806;2024-03-06T03:05:51;6.05;;;4.88;;
77262;SDS011;66373;52.334;4.806;2024-03-06T03:08:18;7.10;;;5.22;;
77262;SDS011;66373;52.334;4.806;2024-03-06T03:10:46;7.43;;;5.82;;
77262;SDS011;66373;52.334;4.806;2024-03-06T03:13:15;6.70;;;5.65;;
77262;SDS011;66373;52.334;4.806;2024-03-06T03:15:42;6.40;;;5.70;;
77262;SDS011;66373;52.334;4.806;2024-03-06T03:18:09;5.70;;;5.10;;
77262;SDS011;66373;52.334;4.806;2024-03-06T03:20:36;5.93;;;5.28;;
77262;SDS011;66373;52.334;4.806;2024-03-06T03:23:04;6.43;;;5.03;;
77262;SDS011;66373;52.334;4.806;2024-03-06T03:25:31;6.13;;;5.05;;
77262;SDS011;66373;52.334;4.806;2024-03-06T03:27:59;5.65;;;4.80;;
77262;SDS011;66373;52.334;4.806;2024-03-06T03:30:28;7.13;;;5.13;;
77262;SDS011;66373;52.334;4.806;2024-03-06T03:32:55;5.50;;;4.95;;
77262;SDS011;66373;52.334;4.806;2024-03-06T03:35:22;6.03;;;4.90;;
77262;SDS011;66373;52.334;4.806;2024-03-06T03:37:50;6.18;;;4.80;;
77262;SDS011;66373;52.334;4.806;2024-03-06T03:40:17;5.53;;;4.85;;
77262;SDS011;66373;52.334;4.806;2024-03-06T03:42:45;5.35;;;4.82;;
77262;SDS011;66373;52.334;4.806;2024-03-06T03:45:13;7.53;;;5.68;;
77262;SDS011;66373;52.334;4.806;2024-03-06T03:47:41;5.95;;;5.10;;
77262;SDS011;66373;52.334;4.806;2024-03-06T03:50:09;6.55;;;4.90;;
77262;SDS011;66373;52.334;4.806;2024-03-06T03:52:36;6.00;;;4.90;;
77262;SDS011;66373;52.334;4.806;2024-03-06T03:55:07;5.40;;;4.72;;
77262;SDS011;66373;52.334;4.806;2024-03-06T03:57:34;5.35;;;4.70;;
77262;SDS011;66373;52.334;4.806;2024-03-06T04:00:01;4.88;;;4.40;;
77262;SDS011;66373;52.334;4.806;2024-03-06T04:02:37;5.65;;;4.40;;
77262;SDS011;66373;52.334;4.806;2024-03-06T04:05:06;5.95;;;4.32;;
77262;SDS011;66373;52.334;4.806;2024-03-06T04:07:35;7.15;;;4.78;;
77262;SDS011;66373;52.334;4.806;2024-03-06T04:10:02;4.90;;;4.32;;
77262;SDS011;66373;52.334;4.806;2024-03-06T04:12:30;4.65;;;4.18;;
77262;SDS011;66373;52.334;4.806;2024-03-06T04:14:57;5.63;;;4.65;;
77262;SDS011;66373;52.334;4.806;2024-03-06T04:17:25;4.70;;;4.20;;
77262;SDS011;66373;52.334;4.806;2024-03-06T04:19:52;5.25;;;4.25;;
77262;SDS011;66373;52.334;4.806;2024-03-06T04:22:22;5.15;;;4.30;;
77262;SDS011;66373;52.334;4.806;2024-03-06T04:24:49;4.55;;;4.13;;
77262;SDS011;66373;52.334;4.806;2024-03-06T04:27:16;5.68;;;4.70;;
77262;SDS011;66373;52.334;4.806;2024-03-06T04:29:44;5.18;;;4.63;;
77262;SDS011;66373;52.334;4.806;2024-03-06T04:32:11;4.93;;;4.35;;
77262;SDS011;66373;52.334;4.806;2024-03-06T04:34:38;5.70;;;4.88;;
77262;SDS011;66373;52.334;4.806;2024-03-06T04:37:05;5.88;;;4.72;;
77262;SDS011;66373;52.334;4.806;2024-03-06T04:39:34;5.32;;;4.18;;
77262;SDS011;66373;52.334;4.806;2024-03-06T04:42:02;4.55;;;4.15;;
77262;SDS011;66373;52.334;4.806;2024-03-06T04:44:33;5.40;;;4.00;;
77262;SDS011;66373;52.334;4.806;2024-03-06T04:47:00;4.85;;;4.22;;
77262;SDS011;66373;52.334;4.806;2024-03-06T04:49:28;5.60;;;4.32;;
77262;SDS011;66373;52.334;4.806;2024-03-06T04:51:55;5.40;;;4.88;;
77262;SDS011;66373;52.334;4.806;2024-03-06T04:54:22;6.95;;;4.00;;
77262;SDS011;66373;52.334;4.806;2024-03-06T04:56:51;5.25;;;4.32;;
77262;SDS011;66373;52.334;4.806;2024-03-06T04:59:18;6.68;;;4.07;;
77262;SDS011;66373;52.334;4.806;2024-03-06T05:01:45;4.15;;;3.75;;
77262;SDS011;66373;52.334;4.806;2024-03-06T05:04:12;6.60;;;4.40;;
77262;SDS011;66373;52.334;4.806;2024-03-06T05:06:39;4.47;;;4.00;;
77262;SDS011;66373;52.334;4.806;2024-03-06T05:09:07;4.57;;;4.00;;
77262;SDS011;66373;52.334;4.806;2024-03-06T05:11:36;4.57;;;3.58;;
77262;SDS011;66373;52.334;4.806;2024-03-06T05:14:05;5.45;;;4.07;;
77262;SDS011;66373;52.334;4.806;2024-03-06T05:16:33;5.88;;;4.35;;
77262;SDS011;66373;52.334;4.806;2024-03-06T05:19:00;4.53;;;4.13;;
77262;SDS011;66373;52.334;4.806;2024-03-06T05:21:27;4.55;;;4.10;;
77262;SDS011;66373;52.334;4.806;2024-03-06T05:23:54;5.13;;;4.32;;
77262;SDS011;66373;52.334;4.806;2024-03-06T05:26:22;4.88;;;4.25;;
77262;SDS011;66373;52.334;4.806;2024-03-06T05:28:49;4.53;;;3.95;;
77262;SDS011;66373;52.334;4.806;2024-03-06T05:31:18;5.32;;;4.05;;
77262;SDS011;66373;52.334;4.806;2024-03-06T05:33:47;5.13;;;4.60;;
77262;SDS011;66373;52.334;4.806;2024-03-06T05:36:15;11.02;;;4.57;;
77262;SDS011;66373;52.334;4.806;2024-03-06T05:38:42;5.43;;;4.20;;
77262;SDS011;66373;52.334;4.806;2024-03-06T05:41:10;4.32;;;3.92;;
77262;SDS011;66373;52.334;4.806;2024-03-06T05:43:37;6.18;;;4.10;;
77262;SDS011;66373;52.334;4.806;2024-03-06T05:46:06;4.22;;;3.83;;
77262;SDS011;66373;52.334;4.806;2024-03-06T05:48:35;7.97;;;4.38;;
77262;SDS011;66373;52.334;4.806;2024-03-06T05:51:02;7.45;;;4.10;;
77262;SDS011;66373;52.334;4.806;2024-03-06T05:53:29;8.70;;;3.72;;
77262;SDS011;66373;52.334;4.806;2024-03-06T05:55:56;3.88;;;3.53;;
77262;SDS011;66373;52.334;4.806;2024-03-06T05:58:24;4.85;;;4.03;;
77262;SDS011;66373;52.334;4.806;2024-03-06T06:00:52;5.63;;;3.53;;
77262;SDS011;66373;52.334;4.806;2024-03-06T06:03:19;4.93;;;3.25;;
77262;SDS011;66373;52.334;4.806;2024-03-06T06:05:48;12.00;;;4.10;;
77262;SDS011;66373;52.334;4.806;2024-03-06T06:08:15;7.13;;;4.25;;
77262;SDS011;66373;52.334;4.806;2024-03-06T06:10:42;8.82;;;4.07;;
77262;SDS011;66373;52.334;4.806;2024-03-06T06:13:10;3.95;;;3.55;;
77262;SDS011;66373;52.334;4.806;2024-03-06T06:15:37;4.88;;;3.50;;
77262;SDS011;66373;52.334;4.806;2024-03-06T06:18:05;5.03;;;3.80;;
77262;SDS011;66373;52.334;4.806;2024-03-06T06:20:32;4.65;;;3.97;;
77262;SDS011;66373;52.334;4.806;2024-03-06T06:23:01;5.40;;;3.65;;
77262;SDS011;66373;52.334;4.806;2024-03-06T06:25:28;5.45;;;3.33;;
77262;SDS011;66373;52.334;4.806;2024-03-06T06:27:55;6.72;;;3.67;;
77262;SDS011;66373;52.334;4.806;2024-03-06T06:30:23;5.88;;;3.70;;
77262;SDS011;66373;52.334;4.806;2024-03-06T06:32:50;6.13;;;3.88;;
77262;SDS011;66373;52.334;4.806;2024-03-06T06:35:17;6.25;;;4.22;;
77262;SDS011;66373;52.334;4.806;2024-03-06T06:37:45;5.55;;;3.90;;
77262;SDS011;66373;52.334;4.806;2024-03-06T06:40:14;9.07;;;3.80;;
77262;SDS011;66373;52.334;4.806;2024-03-06T06:42:44;4.72;;;3.92;;
77262;SDS011;66373;52.334;4.806;2024-03-06T06:45:15;5.10;;;3.70;;
77262;SDS011;66373;52.334;4.806;2024-03-06T06:47:42;5.05;;;3.67;;
77262;SDS011;66373;52.334;4.806;2024-03-06T06:50:10;6.35;;;3.38;;
77262;SDS011;66373;52.334;4.806;2024-03-06T06:52:37;6.25;;;3.33;;
77262;SDS011;66373;52.334;4.806;2024-03-06T06:55:05;5.40;;;3.85;;
77262;SDS011;66373;52.334;4.806;2024-03-06T06:57:36;7.53;;;4.10;;
77262;SDS011;66373;52.334;4.806;2024-03-06T07:00:05;5.72;;;4.25;;
77262;SDS011;66373;52.334;4.806;2024-03-06T07:02:36;5.53;;;4.15;;
77262;SDS011;66373;52.334;4.806;2024-03-06T07:05:04;8.73;;;4.30;;
77262;SDS011;66373;52.334;4.806;2024-03-06T07:07:31;13.52;;;4.90;;
77262;SDS011;66373;52.334;4.806;2024-03-06T07:09:59;12.93;;;5.70;;
77262;SDS011;66373;52.334;4.806;2024-03-06T07:12:26;11.07;;;5.68;;
77262;SDS011;66373;52.334;4.806;2024-03-06T07:14:54;11.70;;;5.80;;
77262;SDS011;66373;52.334;4.806;2024-03-06T07:17:21;10.02;;;6.32;;
77262;SDS011;66373;52.334;4.806;2024-03-06T07:19:49;8.55;;;6.13;;
77262;SDS011;66373;52.334;4.806;2024-03-06T07:22:18;9.38;;;6.68;;
77262;SDS011;66373;52.334;4.806;2024-03-06T07:24:45;10.93;;;6.93;;
77262;SDS011;66373;52.334;4.806;2024-03-06T07:27:12;12.82;;;7.07;;
77262;SDS011;66373;52.334;4.806;2024-03-06T07:29:39;9.93;;;7.25;;
77262;SDS011;66373;52.334;4.806;2024-03-06T07:32:08;11.43;;;7.43;;
77262;SDS011;66373;52.334;4.806;2024-03-06T07:34:37;12.75;;;7.55;;
77262;SDS011;66373;52.334;4.806;2024-03-06T07:37:04;13.63;;;7.68;;
77262;SDS011;66373;52.334;4.806;2024-03-06T07:39:31;13.93;;;8.07;;
77262;SDS011;66373;52.334;4.806;2024-03-06T07:42:00;13.90;;;7.68;;
77262;SDS011;66373;52.334;4.806;2024-03-06T07:44:27;9.13;;;7.90;;
77262;SDS011;66373;52.334;4.806;2024-03-06T07:46:55;11.45;;;7.90;;
77262;SDS011;66373;52.334;4.806;2024-03-06T07:49:23;9.48;;;7.53;;
77262;SDS011;66373;52.334;4.806;2024-03-06T07:51:50;9.75;;;7.97;;
77262;SDS011;66373;52.334;4.806;2024-03-06T07:54:18;8.95;;;7.38;;
77262;SDS011;66373;52.334;4.806;2024-03-06T07:56:46;10.43;;;7.68;;
77262;SDS011;66373;52.334;4.806;2024-03-06T07:59:13;14.30;;;8.80;;
77262;SDS011;66373;52.334;4.806;2024-03-06T08:01:43;12.90;;;7.93;;
77262;SDS011;66373;52.334;4.806;2024-03-06T08:04:10;10.30;;;7.50;;
77262;SDS011;66373;52.334;4.806;2024-03-06T08:06:39;11.80;;;7.45;;
77262;SDS011;66373;52.334;4.806;2024-03-06T08:09:06;10.77;;;7.82;;
77262;SDS011;66373;52.334;4.806;2024-03-06T08:11:33;9.05;;;7.97;;
77262;SDS011;66373;52.334;4.806;2024-03-06T08:14:00;10.63;;;8.25;;
77262;SDS011;66373;52.334;4.806;2024-03-06T08:16:28;8.70;;;7.80;;
77262;SDS011;66373;52.334;4.806;2024-03-06T08:18:55;12.43;;;7.97;;
77262;SDS011;66373;52.334;4.806;2024-03-06T08:21:24;10.55;;;7.85;;
77262;SDS011;66373;52.334;4.806;2024-03-06T08:23:53;11.50;;;8.25;;
77262;SDS011;66373;52.334;4.806;2024-03-06T08:26:20;10.25;;;7.22;;
77262;SDS011;66373;52.334;4.806;2024-03-06T08:28:48;8.95;;;8.05;;
77262;SDS011;66373;52.334;4.806;2024-03-06T08:31:15;13.15;;;8.10;;
77262;SDS011;66373;52.334;4.806;2024-03-06T08:33:43;12.63;;;8.20;;
77262;SDS011;66373;52.334;4.806;2024-03-06T08:36:11;12.65;;;7.65;;
77262;SDS011;66373;52.334;4.806;2024-03-06T08:38:39;9.88;;;7.57;;
77262;SDS011;66373;52.334;4.806;2024-03-06T08:41:07;9.77;;;8.50;;
77262;SDS011;66373;52.334;4.806;2024-03-06T08:43:35;14.05;;;7.78;;
77262;SDS011;66373;52.334;4.806;2024-03-06T08:46:02;11.70;;;7.93;;
77262;SDS011;66373;52.334;4.806;2024-03-06T08:48:30;11.77;;;8.27;;
77262;SDS011;66373;52.334;4.806;2024-03-06T08:50:57;11.05;;;8.10;;
77262;SDS011;66373;52.334;4.806;2024-03-06T08:53:24;9.43;;;7.57;;
77262;SDS011;66373;52.334;4.806;2024-03-06T08:55:51;10.48;;;7.93;;
77262;SDS011;66373;52.334;4.806;2024-03-06T08:58:20;11.35;;;7.97;;
77262;SDS011;66373;52.334;4.806;2024-03-06T09:00:47;12.30;;;7.78;;
77262;SDS011;66373;52.334;4.806;2024-03-06T09:03:15;11.02;;;7.93;;
77262;SDS011;66373;52.334;4.806;2024-03-06T09:05:42;13.52;;;7.97;;
77262;SDS011;66373;52.334;4.806;2024-03-06T09:08:10;14.23;;;8.02;;
77262;SDS011;66373;52.334;4.806;2024-03-06T09:10:38;11.95;;;8.57;;
77262;SDS011;66373;52.334;4.806;2024-03-06T09:13:06;11.85;;;7.72;;
77262;SDS011;66373;52.334;4.806;2024-03-06T09:15:34;11.85;;;7.65;;
77262;SDS011;66373;52.334;4.806;2024-03-06T09:18:02;14.63;;;8.45;;
77262;SDS011;66373;52.334;4.806;2024-03-06T09:20:29;10.45;;;7.63;;
77262;SDS011;66373;52.334;4.806;2024-03-06T09:22:57;12.38;;;7.57;;
77262;SDS011;66373;52.334;4.806;2024-03-06T09:25:25;8.00;;;6.38;;
77262;SDS011;66373;52.334;4.806;2024-03-06T09:27:52;14.05;;;7.10;;
77262;SDS011;66373;52.334;4.806;2024-03-06T09:30:19;10.52;;;6.53;;
77262;SDS011;66373;52.334;4.806;2024-03-06T09:32:48;8.57;;;6.28;;
77262;SDS011;66373;52.334;4.806;2024-03-06T09:35:16;10.05;;;6.95;;
77262;SDS011;66373;52.334;4.806;2024-03-06T09:37:44;11.27;;;6.13;;
77262;SDS011;66373;52.334;4.806;2024-03-06T09:40:19;12.02;;;7.38;;
77262;SDS011;66373;52.334;4.806;2024-03-06T09:42:48;12.30;;;6.45;;
77262;SDS011;66373;52.334;4.806;2024-03-06T09:45:15;11.13;;;6.93;;
77262;SDS011;66373;52.334;4.806;2024-03-06T09:47:45;10.90;;;6.53;;
77262;SDS011;66373;52.334;4.806;2024-03-06T09:50:17;10.40;;;6.55;;
77262;SDS011;66373;52.334;4.806;2024-03-06T09:52:50;10.60;;;6.00;;
77262;SDS011;66373;52.334;4.806;2024-03-06T09:55:19;10.68;;;6.78;;
77262;SDS011;66373;52.334;4.806;2024-03-06T09:57:47;9.43;;;5.68;;
77262;SDS011;66373;52.334;4.806;2024-03-06T10:00:15;7.93;;;6.22;;
77262;SDS011;66373;52.334;4.806;2024-03-06T10:02:46;9.52;;;6.40;;
77262;SDS011;66373;52.334;4.806;2024-03-06T10:05:21;6.80;;;6.07;;
77262;SDS011;66373;52.334;4.806;2024-03-06T10:07:50;9.63;;;6.03;;
77262;SDS011;66373;52.334;4.806;2024-03-06T10:10:18;10.30;;;6.70;;
77262;SDS011;66373;52.334;4.806;2024-03-06T10:12:48;7.72;;;5.65;;
77262;SDS011;66373;52.334;4.806;2024-03-06T10:15:16;8.48;;;6.07;;
77262;SDS011;66373;52.334;4.806;2024-03-06T10:17:43;6.82;;;5.47;;
77262;SDS011;66373;52.334;4.806;2024-03-06T10:20:22;8.52;;;6.18;;
77262;SDS011;66373;52.334;4.806;2024-03-06T10:22:53;8.55;;;5.30;;
77262;SDS011;66373;52.334;4.806;2024-03-06T10:25:21;7.63;;;6.05;;
77262;SDS011;66373;52.334;4.806;2024-03-06T10:33:02;6.65;;;4.85;;
77262;SDS011;66373;52.334;4.806;2024-03-06T10:35:32;6.50;;;4.82;;
77262;SDS011;66373;52.334;4.806;2024-03-06T10:38:00;7.45;;;5.32;;
77262;SDS011;66373;52.334;4.806;2024-03-06T10:40:30;7.97;;;4.97;;
77262;SDS011;66373;52.334;4.806;2024-03-06T10:42:58;5.70;;;4.70;;
77262;SDS011;66373;52.334;4.806;2024-03-06T10:45:28;7.47;;;5.63;;
77262;SDS011;66373;52.334;4.806;2024-03-06T10:48:06;8.82;;;5.10;;
77262;SDS011;66373;52.334;4.806;2024-03-06T10:50:36;7.13;;;4.63;;
77262;SDS011;66373;52.334;4.806;2024-03-06T10:53:05;7.18;;;4.80;;
77262;SDS011;66373;52.334;4.806;2024-03-06T10:55:35;5.60;;;4.97;;
77262;SDS011;66373;52.334;4.806;2024-03-06T10:58:03;6.15;;;4.35;;
77262;SDS011;66373;52.334;4.806;2024-03-06T11:03:04;6.25;;;5.13;;
77262;SDS011;66373;52.334;4.806;2024-03-06T11:05:36;4.85;;;4.28;;
77262;SDS011;66373;52.334;4.806;2024-03-06T11:08:05;5.25;;;4.20;;
77262;SDS011;66373;52.334;4.806;2024-03-06T11:10:35;6.53;;;4.40;;
77262;SDS011;66373;52.334;4.806;2024-03-06T11:13:07;5.70;;;4.40;;
77262;SDS011;66373;52.334;4.806;2024-03-06T11:15:47;5.32;;;4.40;;
77262;SDS011;66373;52.334;4.806;2024-03-06T11:21:30;6.53;;;4.55;;
77262;SDS011;66373;52.334;4.806;2024-03-06T11:24:14;4.90;;;4.00;;
77262;SDS011;66373;52.334;4.806;2024-03-06T11:26:48;5.53;;;4.32;;
77262;SDS011;66373;52.334;4.806;2024-03-06T11:29:17;5.50;;;4.20;;
77262;SDS011;66373;52.334;4.806;2024-03-06T11:32:01;10.38;;;4.28;;
77262;SDS011;66373;52.334;4.806;2024-03-06T11:34:32;4.57;;;3.80;;
77262;SDS011;66373;52.334;4.806;2024-03-06T11:37:02;5.95;;;3.70;;
77262;SDS011;66373;52.334;4.806;2024-03-06T11:39:33;4.95;;;4.32;;
77262;SDS011;66373;52.334;4.806;2024-03-06T11:42:02;5.40;;;4.10;;
77262;SDS011;66373;52.334;4.806;2024-03-06T11:44:31;4.32;;;3.65;;
77262;SDS011;66373;52.334;4.806;2024-03-06T11:46:59;4.50;;;3.67;;
77262;SDS011;66373;52.334;4.806;2024-03-06T11:49:27;5.18;;;3.88;;
77262;SDS011;66373;52.334;4.806;2024-03-06T11:51:58;4.18;;;3.78;;
77262;SDS011;66373;52.334;4.806;2024-03-06T11:54:30;4.20;;;3.80;;
77262;SDS011;66373;52.334;4.806;2024-03-06T11:56:59;4.85;;;3.83;;
77262;SDS011;66373;52.334;4.806;2024-03-06T11:59:27;3.75;;;3.30;;
77262;SDS011;66373;52.334;4.806;2024-03-06T12:01:56;4.65;;;3.70;;
77262;SDS011;66373;52.334;4.806;2024-03-06T12:04:27;4.28;;;3.78;;
77262;SDS011;66373;52.334;4.806;2024-03-06T12:06:56;4.95;;;3.65;;
77262;SDS011;66373;52.334;4.806;2024-03-06T12:09:25;3.83;;;3.30;;
77262;SDS011;66373;52.334;4.806;2024-03-06T12:11:52;8.07;;;4.10;;
77262;SDS011;66373;52.334;4.806;2024-03-06T12:14:22;5.38;;;4.07;;
77262;SDS011;66373;52.334;4.806;2024-03-06T12:16:56;6.03;;;4.13;;
77262;SDS011;66373;52.334;4.806;2024-03-06T12:19:25;6.68;;;3.85;;
77262;SDS011;66373;52.334;4.806;2024-03-06T12:21:53;4.57;;;4.07;;
77262;SDS011;66373;52.334;4.806;2024-03-06T12:24:20;5.65;;;4.03;;
77262;SDS011;66373;52.334;4.806;2024-03-06T12:26:57;5.93;;;3.90;;
77262;SDS011;66373;52.334;4.806;2024-03-06T12:29:27;4.55;;;3.45;;
77262;SDS011;66373;52.334;4.806;2024-03-06T12:31:55;6.00;;;3.70;;
77262;SDS011;66373;52.334;4.806;2024-03-06T12:34:23;4.88;;;4.05;;
77262;SDS011;66373;52.334;4.806;2024-03-06T12:36:50;4.35;;;3.47;;
77262;SDS011;66373;52.334;4.806;2024-03-06T12:39:17;7.18;;;3.75;;
77262;SDS011;66373;52.334;4.806;2024-03-06T12:41:49;4.10;;;3.65;;
77262;SDS011;66373;52.334;4.806;2024-03-06T12:44:17;7.65;;;3.65;;
77262;SDS011;66373;52.334;4.806;2024-03-06T12:46:45;4.60;;;3.25;;
77262;SDS011;66373;52.334;4.806;2024-03-06T12:49:12;4.22;;;3.75;;
77262;SDS011;66373;52.334;4.806;2024-03-06T12:51:40;3.40;;;3.10;;
77262;SDS011;66373;52.334;4.806;2024-03-06T12:54:07;5.05;;;3.65;;
77262;SDS011;66373;52.334;4.806;2024-03-06T12:56:35;4.10;;;3.40;;
77262;SDS011;66373;52.334;4.806;2024-03-06T12:59:03;5.53;;;3.50;;
77262;SDS011;66373;52.334;4.806;2024-03-06T13:01:30;3.90;;;3.40;;
77262;SDS011;66373;52.334;4.806;2024-03-06T13:03:57;4.45;;;3.40;;
77262;SDS011;66373;52.334;4.806;2024-03-06T13:06:25;3.75;;;3.35;;
77262;SDS011;66373;52.334;4.806;2024-03-06T13:08:53;4.43;;;3.40;;
77262;SDS011;66373;52.334;4.806;2024-03-06T13:11:20;6.30;;;3.45;;
77262;SDS011;66373;52.334;4.806;2024-03-06T13:13:48;5.38;;;3.20;;
77262;SDS011;66373;52.334;4.806;2024-03-06T13:16:16;4.55;;;3.35;;
77262;SDS011;66373;52.334;4.806;2024-03-06T13:18:43;5.40;;;3.63;;
77262;SDS011;66373;52.334;4.806;2024-03-06T13:21:11;3.08;;;2.88;;
77262;SDS011;66373;52.334;4.806;2024-03-06T13:23:38;6.43;;;3.50;;
77262;SDS011;66373;52.334;4.806;2024-03-06T13:26:05;4.20;;;3.20;;
77262;SDS011;66373;52.334;4.806;2024-03-06T13:28:32;3.40;;;3.00;;
77262;SDS011;66373;52.334;4.806;2024-03-06T13:30:59;4.03;;;2.95;;
77262;SDS011;66373;52.334;4.806;2024-03-06T13:33:28;3.72;;;3.17;;
77262;SDS011;66373;52.334;4.806;2024-03-06T13:35:55;3.38;;;3.08;;
77262;SDS011;66373;52.334;4.806;2024-03-06T13:38:22;5.18;;;3.33;;
77262;SDS011;66373;52.334;4.806;2024-03-06T13:40:49;4.97;;;2.97;;
77262;SDS011;66373;52.334;4.806;2024-03-06T13:43:16;3.55;;;3.05;;
77262;SDS011;66373;52.334;4.806;2024-03-06T13:45:48;4.30;;;3.15;;
77262;SDS011;66373;52.334;4.806;2024-03-06T13:48:16;3.45;;;3.10;;
77262;SDS011;66373;52.334;4.806;2024-03-06T13:50:44;3.67;;;3.22;;
77262;SDS011;66373;52.334;4.806;2024-03-06T13:53:12;3.03;;;2.72;;
77262;SDS011;66373;52.334;4.806;2024-03-06T13:55:39;4.07;;;3.58;;
77262;SDS011;66373;52.334;4.806;2024-03-06T13:58:07;4.00;;;2.85;;
77262;SDS011;66373;52.334;4.806;2024-03-06T14:00:34;3.95;;;3.30;;
77262;SDS011;66373;52.334;4.806;2024-03-06T14:03:02;3.35;;;3.05;;
77262;SDS011;66373;52.334;4.806;2024-03-06T14:05:30;3.17;;;2.88;;
77262;SDS011;66373;52.334;4.806;2024-03-06T14:07:59;3.40;;;3.10;;
77262;SDS011;66373;52.334;4.806;2024-03-06T14:10:26;4.18;;;3.15;;
77262;SDS011;66373;52.334;4.806;2024-03-06T14:12:53;4.05;;;2.88;;
77262;SDS011;66373;52.334;4.806;2024-03-06T14:15:21;4.10;;;3.22;;
77262;SDS011;66373;52.334;4.806;2024-03-06T14:17:49;3.28;;;2.90;;
77262;SDS011;66373;52.334;4.806;2024-03-06T14:20:16;3.70;;;2.80;;
77262;SDS011;66373;52.334;4.806;2024-03-06T14:22:43;3.88;;;3.15;;
77262;SDS011;66373;52.334;4.806;2024-03-06T14:25:12;3.42;;;2.80;;
77262;SDS011;66373;52.334;4.806;2024-03-06T14:27:39;3.60;;;3.20;;
77262;SDS011;66373;52.334;4.806;2024-03-06T14:30:07;3.58;;;2.92;;
77262;SDS011;66373;52.334;4.806;2024-03-06T14:32:36;4.00;;;3.15;;
77262;SDS011;66373;52.334;4.806;2024-03-06T14:35:04;3.40;;;3.10;;
77262;SDS011;66373;52.334;4.806;2024-03-06T14:37:32;3.40;;;3.03;;
77262;SDS011;66373;52.334;4.806;2024-03-06T14:39:59;2.92;;;2.63;;
77262;SDS011;66373;52.334;4.806;2024-03-06T14:42:28;4.07;;;2.83;;
77262;SDS011;66373;52.334;4.806;2024-03-06T14:44:54;3.47;;;2.90;;
77262;SDS011;66373;52.334;4.806;2024-03-06T14:47:21;5.97;;;3.20;;
77262;SDS011;66373;52.334;4.806;2024-03-06T14:49:48;3.67;;;2.85;;
77262;SDS011;66373;52.334;4.806;2024-03-06T14:52:15;5.38;;;2.97;;
77262;SDS011;66373;52.334;4.806;2024-03-06T14:54:42;3.38;;;2.80;;
77262;SDS011;66373;52.334;4.806;2024-03-06T14:57:11;4.32;;;2.95;;
77262;SDS011;66373;52.334;4.806;2024-03-06T14:59:40;3.60;;;2.90;;
77262;SDS011;66373;52.334;4.806;2024-03-06T15:02:07;4.60;;;3.00;;